Temp: 10.1°C   Baro: 991.9mb
  Wind: 2.0mph   Dir: ESE (104°)
  Rain: 3.2mm (2.4mm/hr)
  Solar: 0W/m2  Hum: 87%
 
Bath Spa Weather Station Historical Data
Daily Summary for August 6, 2019 Units:  Both    English   Metric
Daily Weekly Monthly Yearly Custom
  High: Low: Average:
Temperature: 61.2 °F /  16.2 °C 47.4 °F /  8.6 °C 54.8 °F /  12.7 °C
Dew Point: 55.4 °F /  13 °C 44.1 °F /  6.7 °C 49.6 °F /  9.8 °C
Humidity: 95% 64.3% 83%
Wind Speed: 14.8mph /  23.8km/h - 4.7mph /  7.6km/h
Wind Gust: 27mph /  43.5km/h - -
Wind- - West
Pressure: 30.04 in /  1017.2 hPa 29.78 in /  1008.4 hPa -
Precipitation: 0.06 in /  1.52 mm    
Historical Graphs
 
 
Tabular Data for August 6, 2019
Time Temperature Dew Point Pressure Wind Wind Speed Wind Gust Humidity Rainfall Rate (Hourly) solar
00:04 55.8 °F /  13.2 °C 54.1 °F /  12.3 °C 29.84in /  1010.4hPa South 1.2mph /  1.9km/h 5mph /  8km/h 94% 0.04in /  1.02mm 0 W/m2
00:09 55.8 °F /  13.2 °C 54.1 °F /  12.3 °C 29.84in /  1010.4hPa South 1.6mph /  2.6km/h 5mph /  8km/h 94% 0.04in /  1.02mm 0 W/m2
00:14 55.8 °F /  13.2 °C 54.1 °F /  12.3 °C 29.83in /  1010hPa South 1.8mph /  2.9km/h 5mph /  8km/h 94% 0.04in /  1.02mm 0 W/m2
00:19 55.8 °F /  13.2 °C 54.1 °F /  12.3 °C 29.83in /  1010hPa South 0.8mph /  1.3km/h 4mph /  6.4km/h 94% 0.03in /  0.76mm 0 W/m2
00:24 55.8 °F /  13.2 °C 54.1 °F /  12.3 °C 29.83in /  1010hPa South 1.1mph /  1.8km/h 3mph /  4.8km/h 94% 0.03in /  0.76mm 0 W/m2
00:29 55.8 °F /  13.2 °C 54.2 °F /  12.3 °C 29.83in /  1010hPa South 0.9mph /  1.4km/h 3mph /  4.8km/h 94% 0.03in /  0.76mm 0 W/m2
00:34 55.9 °F /  13.3 °C 54.2 °F /  12.3 °C 29.82in /  1009.7hPa South 0.3mph /  0.5km/h 3mph /  4.8km/h 94% 0.02in /  0.51mm 0 W/m2
00:39 55.9 °F /  13.3 °C 54.3 °F /  12.4 °C 29.82in /  1009.7hPa South 0.7mph /  1.1km/h 3mph /  4.8km/h 94% 0.02in /  0.51mm 0 W/m2
00:44 55.9 °F /  13.3 °C 54.4 °F /  12.4 °C 29.82in /  1009.7hPa South 0.1mph /  0.2km/h 3mph /  4.8km/h 94.7% 0.01in /  0.25mm 0 W/m2
00:49 55.9 °F /  13.3 °C 54.4 °F /  12.4 °C 29.81in /  1009.4hPa South 2.1mph /  3.4km/h 6mph /  9.7km/h 94.4% 0.01in /  0.25mm 0 W/m2
00:54 56 °F /  13.3 °C 54.4 °F /  12.4 °C 29.81in /  1009.4hPa South 3.9mph /  6.3km/h 7mph /  11.3km/h 94% 0.01in /  0.25mm 0 W/m2
00:59 56.1 °F /  13.4 °C 54.5 °F /  12.5 °C 29.80in /  1009hPa South 2.5mph /  4km/h 7mph /  11.3km/h 94% 0.01in /  0.25mm 0 W/m2
01:04 56.1 °F /  13.4 °C 54.5 °F /  12.5 °C 29.80in /  1009hPa South 3.1mph /  5km/h 7mph /  11.3km/h 94% 0.02in /  0.51mm 0 W/m2
01:09 56.1 °F /  13.4 °C 54.5 °F /  12.5 °C 29.80in /  1009hPa South 3.8mph /  6.1km/h 7mph /  11.3km/h 94% 0.02in /  0.51mm 0 W/m2
01:14 56.1 °F /  13.4 °C 54.5 °F /  12.5 °C 29.80in /  1009hPa South 4.3mph /  6.9km/h 8mph /  12.9km/h 94.2% 0.01in /  0.25mm 0 W/m2
01:19 56.1 °F /  13.4 °C 54.6 °F /  12.6 °C 29.80in /  1009hPa SSE 2.6mph /  4.2km/h 8mph /  12.9km/h 94.3% 0.01in /  0.25mm 0 W/m2
01:24 56.1 °F /  13.4 °C 54.6 °F /  12.6 °C 29.80in /  1009hPa South 3.2mph /  5.1km/h 7mph /  11.3km/h 94.7% 0.02in /  0.51mm 0 W/m2
01:29 56.1 °F /  13.4 °C 54.7 °F /  12.6 °C 29.79in /  1008.7hPa South 1.9mph /  3.1km/h 7mph /  11.3km/h 95% 0.02in /  0.51mm 0 W/m2
01:34 56.2 °F /  13.4 °C 54.8 °F /  12.7 °C 29.79in /  1008.7hPa South 3.3mph /  5.3km/h 9mph /  14.5km/h 95% 0.02in /  0.51mm 0 W/m2
01:39 56.3 °F /  13.5 °C 54.9 °F /  12.7 °C 29.79in /  1008.7hPa South 1.9mph /  3.1km/h 9mph /  14.5km/h 95% 0.02in /  0.51mm 0 W/m2
01:44 56.3 °F /  13.5 °C 54.9 °F /  12.7 °C 29.79in /  1008.7hPa South 1.2mph /  1.9km/h 9mph /  14.5km/h 95% 0.02in /  0.51mm 0 W/m2
01:49 56.3 °F /  13.5 °C 54.9 °F /  12.7 °C 29.79in /  1008.7hPa South 1.7mph /  2.7km/h 4mph /  6.4km/h 95% 0.02in /  0.51mm 0 W/m2
01:54 56.4 °F /  13.6 °C 54.9 °F /  12.7 °C 29.79in /  1008.7hPa South 1mph /  1.6km/h 6mph /  9.7km/h 95% 0.03in /  0.76mm 0 W/m2
01:59 56.6 °F /  13.7 °C 55.1 °F /  12.8 °C 29.79in /  1008.7hPa SW 3.2mph /  5.1km/h 8mph /  12.9km/h 95% 0.03in /  0.76mm 0 W/m2
02:04 56.7 °F /  13.7 °C 55.2 °F /  12.9 °C 29.79in /  1008.7hPa SW 2.3mph /  3.7km/h 7mph /  11.3km/h 95% 0.03in /  0.76mm 0 W/m2
02:09 56.7 °F /  13.7 °C 55.2 °F /  12.9 °C 29.79in /  1008.7hPa WSW 4.6mph /  7.4km/h 9mph /  14.5km/h 95% 0.03in /  0.76mm 0 W/m2
02:14 56.7 °F /  13.7 °C 55.2 °F /  12.9 °C 29.79in /  1008.7hPa WSW 1mph /  1.6km/h 5mph /  8km/h 95% 0.03in /  0.76mm 0 W/m2
02:19 56.7 °F /  13.7 °C 55.3 °F /  12.9 °C 29.79in /  1008.7hPa WSW 1.9mph /  3.1km/h 5mph /  8km/h 95% 0.03in /  0.76mm 0 W/m2
02:24 56.8 °F /  13.8 °C 55.3 °F /  12.9 °C 29.79in /  1008.7hPa WSW 2.6mph /  4.2km/h 8mph /  12.9km/h 95% 0.03in /  0.76mm 0 W/m2
02:29 56.8 °F /  13.8 °C 55.4 °F /  13 °C 29.79in /  1008.7hPa WSW 4.5mph /  7.2km/h 10mph /  16.1km/h 95% 0.02in /  0.51mm 0 W/m2
02:34 56.8 °F /  13.8 °C 55.4 °F /  13 °C 29.79in /  1008.7hPa West 4.6mph /  7.4km/h 10mph /  16.1km/h 95% 0.02in /  0.51mm 0 W/m2
02:39 56.8 °F /  13.8 °C 55.4 °F /  13 °C 29.79in /  1008.7hPa West 3.7mph /  6km/h 8mph /  12.9km/h 95% 0.02in /  0.51mm 0 W/m2
02:44 56.8 °F /  13.8 °C 55.4 °F /  13 °C 29.79in /  1008.7hPa West 5.3mph /  8.5km/h 10mph /  16.1km/h 95% 0.02in /  0.51mm 0 W/m2
02:49 56.7 °F /  13.7 °C 55.3 °F /  12.9 °C 29.79in /  1008.7hPa West 2.6mph /  4.2km/h 9mph /  14.5km/h 95% 0.02in /  0.51mm 0 W/m2
02:54 56.7 °F /  13.7 °C 55.2 °F /  12.9 °C 29.79in /  1008.7hPa West 3.4mph /  5.5km/h 9mph /  14.5km/h 95% 0.02in /  0.51mm 0 W/m2
02:59 56.7 °F /  13.7 °C 55.2 °F /  12.9 °C 29.79in /  1008.7hPa West 4.8mph /  7.7km/h 9mph /  14.5km/h 95% 0.02in /  0.51mm 0 W/m2
03:04 56.6 °F /  13.7 °C 55.1 °F /  12.8 °C 29.79in /  1008.7hPa West 3.3mph /  5.3km/h 8mph /  12.9km/h 95% 0.01in /  0.25mm 0 W/m2
03:09 56.4 °F /  13.6 °C 54.9 °F /  12.7 °C 29.78in /  1008.4hPa West 2.9mph /  4.7km/h 9mph /  14.5km/h 95% 0.01in /  0.25mm 0 W/m2
03:14 56.2 °F /  13.4 °C 54.8 °F /  12.7 °C 29.78in /  1008.4hPa West 3.4mph /  5.5km/h 9mph /  14.5km/h 95% 0.01in /  0.25mm 0 W/m2
03:19 56 °F /  13.3 °C 54.6 °F /  12.6 °C 29.78in /  1008.4hPa West 4.7mph /  7.6km/h 9mph /  14.5km/h 95% 0.01in /  0.25mm 0 W/m2
03:24 55.8 °F /  13.2 °C 54.3 °F /  12.4 °C 29.78in /  1008.4hPa West 3.6mph /  5.8km/h 8mph /  12.9km/h 95% 0.01in /  0.25mm 0 W/m2
03:29 55.7 °F /  13.2 °C 54.1 °F /  12.3 °C 29.78in /  1008.4hPa West 2.8mph /  4.5km/h 9mph /  14.5km/h 94.8% 0.01in /  0.25mm 0 W/m2
03:34 55.4 °F /  13 °C 53.8 °F /  12.1 °C 29.78in /  1008.4hPa West 0.7mph /  1.1km/h 5mph /  8km/h 94% 0.01in /  0.25mm 0 W/m2
03:39 55.2 °F /  12.9 °C 53.6 °F /  12 °C 29.78in /  1008.4hPa West 2.8mph /  4.5km/h 6mph /  9.7km/h 94% 0.01in /  0.25mm 0 W/m2
03:44 55.1 °F /  12.8 °C 53.5 °F /  11.9 °C 29.78in /  1008.4hPa West 1.6mph /  2.6km/h 4mph /  6.4km/h 94% 0.00in /  0mm 0 W/m2
03:49 55 °F /  12.8 °C 53.4 °F /  11.9 °C 29.78in /  1008.4hPa West 1.9mph /  3.1km/h 5mph /  8km/h 94% 0.00in /  0mm 0 W/m2
03:54 54.9 °F /  12.7 °C 53.2 °F /  11.8 °C 29.78in /  1008.4hPa West 1.7mph /  2.7km/h 4mph /  6.4km/h 94% 0.00in /  0mm 0 W/m2
03:59 54.9 °F /  12.7 °C 53.2 °F /  11.8 °C 29.78in /  1008.4hPa West 1.6mph /  2.6km/h 5mph /  8km/h 94% 0.00in /  0mm 0 W/m2
04:04 54.7 °F /  12.6 °C 53.1 °F /  11.7 °C 29.78in /  1008.4hPa West 1.3mph /  2.1km/h 4mph /  6.4km/h 94% 0.00in /  0mm 0 W/m2
04:09 54.7 °F /  12.6 °C 53.1 °F /  11.7 °C 29.78in /  1008.4hPa West 2.3mph /  3.7km/h 7mph /  11.3km/h 94% 0.00in /  0mm 0 W/m2
04:14 54.7 °F /  12.6 °C 53.1 °F /  11.7 °C 29.78in /  1008.4hPa West 2.6mph /  4.2km/h 7mph /  11.3km/h 94% 0.00in /  0mm 0 W/m2
04:19 54.6 °F /  12.6 °C 53 °F /  11.7 °C 29.78in /  1008.4hPa West 1.7mph /  2.7km/h 5mph /  8km/h 94% 0.00in /  0mm 0 W/m2
04:24 54.6 °F /  12.6 °C 53 °F /  11.7 °C 29.78in /  1008.4hPa West 3.2mph /  5.1km/h 6mph /  9.7km/h 94% 0.00in /  0mm 0 W/m2
04:29 54.5 °F /  12.5 °C 52.9 °F /  11.6 °C 29.78in /  1008.4hPa West 2.3mph /  3.7km/h 6mph /  9.7km/h 94% 0.00in /  0mm 0 W/m2
04:34 54.5 °F /  12.5 °C 52.9 °F /  11.6 °C 29.78in /  1008.4hPa West 1.9mph /  3.1km/h 4mph /  6.4km/h 94% 0.00in /  0mm 0 W/m2
04:39 54.4 °F /  12.4 °C 52.8 °F /  11.6 °C 29.78in /  1008.4hPa West 2.3mph /  3.7km/h 5mph /  8km/h 94% 0.00in /  0mm 0 W/m2
04:44 54.3 °F /  12.4 °C 52.7 °F /  11.5 °C 29.78in /  1008.4hPa West 2.3mph /  3.7km/h 6mph /  9.7km/h 94% 0.00in /  0mm 0 W/m2
04:49 54.3 °F /  12.4 °C 52.7 °F /  11.5 °C 29.78in /  1008.4hPa West 2.3mph /  3.7km/h 6mph /  9.7km/h 94% 0.00in /  0mm 0 W/m2
04:54 54.2 °F /  12.3 °C 52.6 °F /  11.4 °C 29.78in /  1008.4hPa West 3.5mph /  5.6km/h 7mph /  11.3km/h 94% 0.00in /  0mm 0 W/m2
04:59 54.1 °F /  12.3 °C 52.5 °F /  11.4 °C 29.78in /  1008.4hPa West 3mph /  4.8km/h 7mph /  11.3km/h 94% 0.00in /  0mm 0 W/m2
05:04 54 °F /  12.2 °C 52.3 °F /  11.3 °C 29.79in /  1008.7hPa West 4.5mph /  7.2km/h 8mph /  12.9km/h 94% 0.00in /  0mm 0 W/m2
05:09 53.8 °F /  12.1 °C 52.2 °F /  11.2 °C 29.79in /  1008.7hPa West 2mph /  3.2km/h 7mph /  11.3km/h 94% 0.00in /  0mm 0 W/m2
05:14 53.6 °F /  12 °C 52 °F /  11.1 °C 29.79in /  1008.7hPa West 3.5mph /  5.6km/h 7mph /  11.3km/h 94% 0.00in /  0mm 0 W/m2
05:19 53.4 °F /  11.9 °C 51.8 °F /  11 °C 29.79in /  1008.7hPa West 2.9mph /  4.7km/h 6mph /  9.7km/h 94% 0.00in /  0mm 0 W/m2
05:24 53.3 °F /  11.8 °C 51.7 °F /  10.9 °C 29.80in /  1009hPa West 3.6mph /  5.8km/h 6mph /  9.7km/h 94% 0.00in /  0mm 0 W/m2
05:29 53.2 °F /  11.8 °C 51.6 °F /  10.9 °C 29.80in /  1009hPa West 3.1mph /  5km/h 6mph /  9.7km/h 94% 0.00in /  0mm 0 W/m2
05:34 53.1 °F /  11.7 °C 51.4 °F /  10.8 °C 29.79in /  1008.7hPa West 3.1mph /  5km/h 6mph /  9.7km/h 94% 0.00in /  0mm 0 W/m2
05:39 53.1 °F /  11.7 °C 51.4 °F /  10.8 °C 29.80in /  1009hPa West 2.9mph /  4.7km/h 6mph /  9.7km/h 94% 0.00in /  0mm 0 W/m2
05:44 52.9 °F /  11.6 °C 51.3 °F /  10.7 °C 29.80in /  1009hPa West 2.9mph /  4.7km/h 5mph /  8km/h 94% 0.00in /  0mm 0 W/m2
05:49 52.7 °F /  11.5 °C 51.1 °F /  10.6 °C 29.80in /  1009hPa West 2.8mph /  4.5km/h 5mph /  8km/h 94.1% 0.00in /  0mm 0 W/m2
05:54 52.4 °F /  11.3 °C 50.8 °F /  10.4 °C 29.80in /  1009hPa West 3.7mph /  6km/h 6mph /  9.7km/h 94% 0.00in /  0mm 0 W/m2
05:59 52.3 °F /  11.3 °C 50.7 °F /  10.4 °C 29.80in /  1009hPa West 2.8mph /  4.5km/h 6mph /  9.7km/h 94% 0.00in /  0mm 0 W/m2
06:04 52.2 °F /  11.2 °C 50.7 °F /  10.4 °C 29.80in /  1009hPa West 2.9mph /  4.7km/h 5mph /  8km/h 94.6% 0.00in /  0mm 0 W/m2
06:09 52.2 °F /  11.2 °C 50.7 °F /  10.4 °C 29.80in /  1009hPa WNW 4.9mph /  7.9km/h 10mph /  16.1km/h 95% 0.00in /  0mm 0 W/m2
06:14 52.2 °F /  11.2 °C 50.7 °F /  10.4 °C 29.80in /  1009hPa WNW 4.6mph /  7.4km/h 9mph /  14.5km/h 95% 0.00in /  0mm 0 W/m2
06:19 52.2 °F /  11.2 °C 50.7 °F /  10.4 °C 29.80in /  1009hPa WNW 4.5mph /  7.2km/h 8mph /  12.9km/h 95% 0.00in /  0mm 0 W/m2
06:24 52 °F /  11.1 °C 50.4 °F /  10.2 °C 29.81in /  1009.4hPa WNW 3.9mph /  6.3km/h 7mph /  11.3km/h 94% 0.00in /  0mm 0 W/m2
06:29 51.8 °F /  11 °C 50.2 °F /  10.1 °C 29.81in /  1009.4hPa WNW 3.4mph /  5.5km/h 8mph /  12.9km/h 94% 0.00in /  0mm 0 W/m2
06:34 51.8 °F /  11 °C 50.2 °F /  10.1 °C 29.81in /  1009.4hPa WNW 2.1mph /  3.4km/h 6mph /  9.7km/h 94% 0.00in /  0mm 0 W/m2
06:39 51.8 °F /  11 °C 50.2 °F /  10.1 °C 29.81in /  1009.4hPa WNW 2.5mph /  4km/h 6mph /  9.7km/h 94% 0.00in /  0mm 0 W/m2
06:44 51.6 °F /  10.9 °C 50.1 °F /  10.1 °C 29.81in /  1009.4hPa WNW 2.6mph /  4.2km/h 6mph /  9.7km/h 94.3% 0.00in /  0mm 0 W/m2
06:49 51.5 °F /  10.8 °C 50.1 °F /  10.1 °C 29.81in /  1009.4hPa WNW 3.6mph /  5.8km/h 7mph /  11.3km/h 95% 0.00in /  0mm 0 W/m2
06:54 51.3 °F /  10.7 °C 49.8 °F /  9.9 °C 29.82in /  1009.7hPa WNW 3.3mph /  5.3km/h 6mph /  9.7km/h 94.7% 0.00in /  0mm 0 W/m2
06:59 51.2 °F /  10.7 °C 49.5 °F /  9.7 °C 29.82in /  1009.7hPa WNW 3.5mph /  5.6km/h 6mph /  9.7km/h 94% 0.00in /  0mm 0 W/m2
07:04 50.9 °F /  10.5 °C 49.3 °F /  9.6 °C 29.82in /  1009.7hPa WNW 3.7mph /  6km/h 6mph /  9.7km/h 94.4% 0.00in /  0mm 0 W/m2
07:09 50.7 °F /  10.4 °C 49.2 °F /  9.6 °C 29.82in /  1009.7hPa WNW 4mph /  6.4km/h 6mph /  9.7km/h 94.7% 0.00in /  0mm 0 W/m2
07:14 50.6 °F /  10.3 °C 49 °F /  9.4 °C 29.82in /  1009.7hPa WNW 3.8mph /  6.1km/h 6mph /  9.7km/h 94% 0.00in /  0mm 0 W/m2
07:19 50.5 °F /  10.3 °C 48.9 °F /  9.4 °C 29.82in /  1009.7hPa WNW 4.3mph /  6.9km/h 7mph /  11.3km/h 94% 0.00in /  0mm 5 W/m2
07:24 50.5 °F /  10.3 °C 48.9 °F /  9.4 °C 29.83in /  1010hPa WNW 2.9mph /  4.7km/h 6mph /  9.7km/h 94% 0.00in /  0mm 7 W/m2
07:29 50.4 °F /  10.2 °C 48.7 °F /  9.3 °C 29.83in /  1010hPa WNW 2.8mph /  4.5km/h 6mph /  9.7km/h 94% 0.00in /  0mm 11 W/m2
07:34 50.3 °F /  10.2 °C 48.8 °F /  9.3 °C 29.83in /  1010hPa WNW 3mph /  4.8km/h 5mph /  8km/h 94.8% 0.00in /  0mm 14 W/m2
07:39 50.1 °F /  10.1 °C 48.6 °F /  9.2 °C 29.83in /  1010hPa WNW 1.2mph /  1.9km/h 5mph /  8km/h 94.8% 0.00in /  0mm 18 W/m2
07:44 50 °F /  10 °C 48.5 °F /  9.2 °C 29.83in /  1010hPa WNW 1.4mph /  2.3km/h 4mph /  6.4km/h 94.7% 0.00in /  0mm 19 W/m2
07:49 50 °F /  10 °C 48.6 °F /  9.2 °C 29.83in /  1010hPa WNW 2.8mph /  4.5km/h 5mph /  8km/h 94.8% 0.00in /  0mm 23 W/m2
07:54 50.1 °F /  10.1 °C 48.6 °F /  9.2 °C 29.83in /  1010hPa WNW 2.1mph /  3.4km/h 5mph /  8km/h 94.9% 0.00in /  0mm 26 W/m2
07:59 50.3 °F /  10.2 °C 48.7 °F /  9.3 °C 29.83in /  1010hPa WNW 3mph /  4.8km/h 7mph /  11.3km/h 94.4% 0.00in /  0mm 28 W/m2
08:04 50.4 °F /  10.2 °C 48.7 °F /  9.3 °C 29.83in /  1010hPa WNW 3.7mph /  6km/h 8mph /  12.9km/h 94% 0.00in /  0mm 30 W/m2
08:09 50.5 °F /  10.3 °C 48.8 °F /  9.3 °C 29.83in /  1010hPa WNW 4mph /  6.4km/h 8mph /  12.9km/h 94% 0.00in /  0mm 33 W/m2
08:14 50.6 °F /  10.3 °C 49 °F /  9.4 °C 29.83in /  1010hPa WNW 3.4mph /  5.5km/h 8mph /  12.9km/h 94% 0.00in /  0mm 35 W/m2
08:19 50.7 °F /  10.4 °C 49.1 °F /  9.5 °C 29.83in /  1010hPa NW 4.1mph /  6.6km/h 10mph /  16.1km/h 94% 0.00in /  0mm 39 W/m2
08:24 50.8 °F /  10.4 °C 49.2 °F /  9.6 °C 29.84in /  1010.4hPa NW 5mph /  8km/h 11mph /  17.7km/h 94% 0.00in /  0mm 42 W/m2
08:29 50.9 °F /  10.5 °C 49.3 °F /  9.6 °C 29.84in /  1010.4hPa NW 3.3mph /  5.3km/h 10mph /  16.1km/h 94% 0.00in /  0mm 47 W/m2
08:34 51 °F /  10.6 °C 49.4 °F /  9.7 °C 29.84in /  1010.4hPa WNW 4.5mph /  7.2km/h 10mph /  16.1km/h 94% 0.00in /  0mm 56 W/m2
08:39 51.3 °F /  10.7 °C 49.6 °F /  9.8 °C 29.84in /  1010.4hPa WNW 4.2mph /  6.8km/h 9mph /  14.5km/h 94% 0.00in /  0mm 67 W/m2
08:44 51.4 °F /  10.8 °C 49.6 °F /  9.8 °C 29.84in /  1010.4hPa WNW 5.2mph /  8.4km/h 11mph /  17.7km/h 93.3% 0.00in /  0mm 77 W/m2
08:49 51.7 °F /  10.9 °C 49.7 °F /  9.8 °C 29.85in /  1010.7hPa WNW 6.4mph /  10.3km/h 11mph /  17.7km/h 93% 0.00in /  0mm 90 W/m2
08:54 52 °F /  11.1 °C 49.8 °F /  9.9 °C 29.85in /  1010.7hPa WNW 5.7mph /  9.2km/h 11mph /  17.7km/h 92.6% 0.00in /  0mm 98 W/m2
08:59 52.2 °F /  11.2 °C 49.9 °F /  9.9 °C 29.85in /  1010.7hPa WNW 5.3mph /  8.5km/h 10mph /  16.1km/h 92% 0.00in /  0mm 113 W/m2
09:04 52.4 °F /  11.3 °C 50.1 °F /  10.1 °C 29.85in /  1010.7hPa WNW 4.6mph /  7.4km/h 9mph /  14.5km/h 91.8% 0.00in /  0mm 127 W/m2
09:09 52.7 °F /  11.5 °C 50.3 °F /  10.2 °C 29.85in /  1010.7hPa WNW 5.1mph /  8.2km/h 10mph /  16.1km/h 91.5% 0.00in /  0mm 141 W/m2
09:14 52.9 °F /  11.6 °C 50.3 °F /  10.2 °C 29.85in /  1010.7hPa WNW 4.9mph /  7.9km/h 9mph /  14.5km/h 90.9% 0.00in /  0mm 155 W/m2
09:19 53.1 °F /  11.7 °C 50.3 °F /  10.2 °C 29.86in /  1011.1hPa WNW 6mph /  9.7km/h 12mph /  19.3km/h 90.2% 0.00in /  0mm 171 W/m2
09:24 53.4 °F /  11.9 °C 50.3 °F /  10.2 °C 29.86in /  1011.1hPa WNW 5.6mph /  9km/h 9mph /  14.5km/h 89.2% 0.00in /  0mm 183 W/m2
09:29 53.5 °F /  11.9 °C 50.3 °F /  10.2 °C 29.86in /  1011.1hPa WNW 6.1mph /  9.8km/h 12mph /  19.3km/h 89% 0.00in /  0mm 199 W/m2
09:34 53.7 °F /  12.1 °C 50.4 °F /  10.2 °C 29.87in /  1011.4hPa WNW 6.1mph /  9.8km/h 15mph /  24.1km/h 89% 0.00in /  0mm 209 W/m2
09:39 53.9 °F /  12.2 °C 50.5 °F /  10.3 °C 29.87in /  1011.4hPa WNW 7.2mph /  11.6km/h 16mph /  25.7km/h 88% 0.00in /  0mm 220 W/m2
09:44 54.1 °F /  12.3 °C 50.6 °F /  10.3 °C 29.87in /  1011.4hPa WNW 7mph /  11.3km/h 12mph /  19.3km/h 87.8% 0.00in /  0mm 232 W/m2
09:49 54.2 °F /  12.3 °C 50.5 °F /  10.3 °C 29.87in /  1011.4hPa WNW 7.6mph /  12.2km/h 16mph /  25.7km/h 87% 0.00in /  0mm 248 W/m2
09:54 54.4 °F /  12.4 °C 50.6 °F /  10.3 °C 29.87in /  1011.4hPa WNW 6.4mph /  10.3km/h 16mph /  25.7km/h 87% 0.00in /  0mm 258 W/m2
09:59 54.4 °F /  12.4 °C 50.3 °F /  10.2 °C 29.87in /  1011.4hPa WNW 8.7mph /  14km/h 15mph /  24.1km/h 86.2% 0.00in /  0mm 274 W/m2
10:04 54.6 °F /  12.6 °C 50.5 °F /  10.3 °C 29.87in /  1011.4hPa WNW 8mph /  12.9km/h 14mph /  22.5km/h 86% 0.00in /  0mm 285 W/m2
10:09 54.9 °F /  12.7 °C 50.6 °F /  10.3 °C 29.87in /  1011.4hPa WNW 7.2mph /  11.6km/h 14mph /  22.5km/h 85.9% 0.00in /  0mm 355 W/m2
10:14 55 °F /  12.8 °C 50.6 °F /  10.3 °C 29.87in /  1011.4hPa WNW 5.8mph /  9.3km/h 13mph /  20.9km/h 85.3% 0.00in /  0mm 355 W/m2
10:19 55 °F /  12.8 °C 50.5 °F /  10.3 °C 29.87in /  1011.4hPa WNW 8.4mph /  13.5km/h 15mph /  24.1km/h 85% 0.00in /  0mm 352 W/m2
10:24 55.1 °F /  12.8 °C 50.6 °F /  10.3 °C 29.87in /  1011.4hPa WNW 7mph /  11.3km/h 15mph /  24.1km/h 85% 0.00in /  0mm 355 W/m2
10:29 55.3 °F /  12.9 °C 50.7 °F /  10.4 °C 29.87in /  1011.4hPa WNW 6.9mph /  11.1km/h 14mph /  22.5km/h 84.4% 0.01in /  0.25mm 355 W/m2
10:34 55.7 °F /  13.2 °C 51 °F /  10.6 °C 29.87in /  1011.4hPa WNW 6.8mph /  10.9km/h 12mph /  19.3km/h 84% 0.01in /  0.25mm 378 W/m2
10:39 55.8 °F /  13.2 °C 51 °F /  10.6 °C 29.87in /  1011.4hPa WNW 8.8mph /  14.2km/h 16mph /  25.7km/h 83.6% 0.01in /  0.25mm 378 W/m2
10:44 55.9 °F /  13.3 °C 50.6 °F /  10.3 °C 29.87in /  1011.4hPa WNW 11.1mph /  17.9km/h 18mph /  29km/h 82.3% 0.01in /  0.25mm 394 W/m2
10:49 56 °F /  13.3 °C 50.3 °F /  10.2 °C 29.87in /  1011.4hPa WNW 9.4mph /  15.1km/h 17mph /  27.4km/h 81.3% 0.01in /  0.25mm 399 W/m2
10:54 56 °F /  13.3 °C 50.3 °F /  10.2 °C 29.87in /  1011.4hPa WNW 10.8mph /  17.4km/h 17mph /  27.4km/h 81% 0.01in /  0.25mm 431 W/m2
10:59 56.1 °F /  13.4 °C 50.1 °F /  10.1 °C 29.87in /  1011.4hPa WNW 11.3mph /  18.2km/h 19mph /  30.6km/h 80.3% 0.01in /  0.25mm 438 W/m2
11:04 56 °F /  13.3 °C 50 °F /  10 °C 29.87in /  1011.4hPa WNW 10.2mph /  16.4km/h 17mph /  27.4km/h 80.2% 0.01in /  0.25mm 482 W/m2
11:09 56.4 °F /  13.6 °C 50.6 °F /  10.3 °C 29.88in /  1011.7hPa WNW 8.9mph /  14.3km/h 17mph /  27.4km/h 80.8% 0.01in /  0.25mm 489 W/m2
11:14 56.7 °F /  13.7 °C 50.9 °F /  10.5 °C 29.88in /  1011.7hPa WNW 9mph /  14.5km/h 17mph /  27.4km/h 81% 0.01in /  0.25mm 469 W/m2
11:19 56.5 °F /  13.6 °C 50.4 °F /  10.2 °C 29.88in /  1011.7hPa WNW 11.1mph /  17.9km/h 19mph /  30.6km/h 80.1% 0.01in /  0.25mm 186 W/m2
11:24 56.6 °F /  13.7 °C 50.4 °F /  10.2 °C 29.88in /  1011.7hPa WNW 11.3mph /  18.2km/h 19mph /  30.6km/h 80% 0.01in /  0.25mm 459 W/m2
11:29 56.9 °F /  13.8 °C 50.7 °F /  10.4 °C 29.88in /  1011.7hPa WNW 8.9mph /  14.3km/h 17mph /  27.4km/h 79.7% 0.00in /  0mm 487 W/m2
11:34 57 °F /  13.9 °C 50.5 °F /  10.3 °C 29.88in /  1011.7hPa WNW 11.3mph /  18.2km/h 22mph /  35.4km/h 79% 0.00in /  0mm 499 W/m2
11:39 57.2 °F /  14 °C 50.6 °F /  10.3 °C 29.88in /  1011.7hPa WNW 11.8mph /  19km/h 19mph /  30.6km/h 78.5% 0.00in /  0mm 499 W/m2
11:44 57.6 °F /  14.2 °C 50.7 °F /  10.4 °C 29.88in /  1011.7hPa WNW 10.5mph /  16.9km/h 20mph /  32.2km/h 77.9% 0.00in /  0mm 527 W/m2
11:49 57.7 °F /  14.3 °C 50.6 °F /  10.3 °C 29.88in /  1011.7hPa WNW 10.2mph /  16.4km/h 20mph /  32.2km/h 77.3% 0.00in /  0mm 564 W/m2
11:54 57.7 °F /  14.3 °C 50.5 °F /  10.3 °C 29.88in /  1011.7hPa WNW 11.4mph /  18.3km/h 19mph /  30.6km/h 76.9% 0.00in /  0mm 564 W/m2
11:59 57.8 °F /  14.3 °C 50.4 °F /  10.2 °C 29.88in /  1011.7hPa WNW 8.4mph /  13.5km/h 18mph /  29km/h 76.4% 0.00in /  0mm 555 W/m2
12:04 57.7 °F /  14.3 °C 50.2 °F /  10.1 °C 29.88in /  1011.7hPa WNW 11.5mph /  18.5km/h 20mph /  32.2km/h 76% 0.00in /  0mm 564 W/m2
12:09 58.1 °F /  14.5 °C 50.5 °F /  10.3 °C 29.88in /  1011.7hPa WNW 9.9mph /  15.9km/h 15mph /  24.1km/h 76% 0.00in /  0mm 610 W/m2
12:14 58.5 °F /  14.7 °C 50.6 °F /  10.3 °C 29.88in /  1011.7hPa WNW 10.4mph /  16.7km/h 16mph /  25.7km/h 75.3% 0.00in /  0mm 670 W/m2
12:19 58.5 °F /  14.7 °C 50.8 °F /  10.4 °C 29.88in /  1011.7hPa WNW 7.5mph /  12.1km/h 16mph /  25.7km/h 75.7% 0.00in /  0mm 635 W/m2
12:24 58.7 °F /  14.8 °C 50.9 °F /  10.5 °C 29.88in /  1011.7hPa WNW 8.6mph /  13.8km/h 19mph /  30.6km/h 75.4% 0.00in /  0mm 540 W/m2
12:29 58.6 °F /  14.8 °C 50.3 °F /  10.2 °C 29.88in /  1011.7hPa WNW 10.4mph /  16.7km/h 18mph /  29km/h 74% 0.00in /  0mm 541 W/m2
12:34 58.8 °F /  14.9 °C 50.3 °F /  10.2 °C 29.88in /  1011.7hPa WNW 13.3mph /  21.4km/h 21mph /  33.8km/h 73.4% 0.00in /  0mm 594 W/m2
12:39 58.8 °F /  14.9 °C 49.8 °F /  9.9 °C 29.88in /  1011.7hPa WNW 11.2mph /  18km/h 19mph /  30.6km/h 72% 0.00in /  0mm 612 W/m2
12:44 59 °F /  15 °C 49.8 °F /  9.9 °C 29.87in /  1011.4hPa WNW 11.8mph /  19km/h 22mph /  35.4km/h 71.7% 0.00in /  0mm 654 W/m2
12:49 59.1 °F /  15.1 °C 49.9 °F /  9.9 °C 29.87in /  1011.4hPa NW 10.4mph /  16.7km/h 19mph /  30.6km/h 71.5% 0.00in /  0mm 601 W/m2
12:54 58.9 °F /  14.9 °C 49.2 °F /  9.6 °C 29.88in /  1011.7hPa WNW 8.6mph /  13.8km/h 19mph /  30.6km/h 70% 0.00in /  0mm 584 W/m2
12:59 59 °F /  15 °C 49.3 °F /  9.6 °C 29.88in /  1011.7hPa NW 9.7mph /  15.6km/h 18mph /  29km/h 69.9% 0.00in /  0mm 610 W/m2
13:04 59.4 °F /  15.2 °C 49.3 °F /  9.6 °C 29.88in /  1011.7hPa NW 13.7mph /  22km/h 25mph /  40.2km/h 69.5% 0.00in /  0mm 668 W/m2
13:09 59.3 °F /  15.2 °C 48.9 °F /  9.4 °C 29.88in /  1011.7hPa WNW 9.8mph /  15.8km/h 25mph /  40.2km/h 68.5% 0.00in /  0mm 636 W/m2
13:14 59.5 °F /  15.3 °C 49.2 °F /  9.6 °C 29.88in /  1011.7hPa WNW 12mph /  19.3km/h 21mph /  33.8km/h 69% 0.00in /  0mm 710 W/m2
13:19 59.5 °F /  15.3 °C 49.3 °F /  9.6 °C 29.88in /  1011.7hPa WNW 11.1mph /  17.9km/h 21mph /  33.8km/h 68.9% 0.00in /  0mm 636 W/m2
13:24 60.1 °F /  15.6 °C 50.2 °F /  10.1 °C 29.88in /  1011.7hPa WNW 8.5mph /  13.7km/h 18mph /  29km/h 69.7% 0.00in /  0mm 675 W/m2
13:29 60.3 °F /  15.7 °C 49.8 °F /  9.9 °C 29.88in /  1011.7hPa WNW 10.6mph /  17.1km/h 20mph /  32.2km/h 68.3% 0.00in /  0mm 631 W/m2
13:34 59.6 °F /  15.3 °C 48.9 °F /  9.4 °C 29.89in /  1012.1hPa WNW 14.8mph /  23.8km/h 23mph /  37km/h 67.8% 0.00in /  0mm 564 W/m2
13:39 59.3 °F /  15.2 °C 48.7 °F /  9.3 °C 29.89in /  1012.1hPa WNW 10mph /  16.1km/h 21mph /  33.8km/h 68% 0.00in /  0mm 564 W/m2
13:44 59 °F /  15 °C 48.7 °F /  9.3 °C 29.89in /  1012.1hPa NW 8.8mph /  14.2km/h 16mph /  25.7km/h 68.5% 0.00in /  0mm 220 W/m2
13:49 59.2 °F /  15.1 °C 48.9 °F /  9.4 °C 29.89in /  1012.1hPa WNW 9.2mph /  14.8km/h 17mph /  27.4km/h 68.7% 0.00in /  0mm 605 W/m2
13:54 59.7 °F /  15.4 °C 49 °F /  9.4 °C 29.89in /  1012.1hPa NW 7.9mph /  12.7km/h 17mph /  27.4km/h 67.9% 0.00in /  0mm 684 W/m2
13:59 60.6 °F /  15.9 °C 49.6 °F /  9.8 °C 29.90in /  1012.4hPa WNW 7.4mph /  11.9km/h 17mph /  27.4km/h 67% 0.00in /  0mm 684 W/m2
14:04 61.2 °F /  16.2 °C 49.6 °F /  9.8 °C 29.90in /  1012.4hPa WNW 9.8mph /  15.8km/h 17mph /  27.4km/h 65.8% 0.00in /  0mm 696 W/m2
14:09 61.1 °F /  16.2 °C 49.1 °F /  9.5 °C 29.90in /  1012.4hPa WNW 14.5mph /  23.3km/h 27mph /  43.5km/h 64.7% 0.00in /  0mm 643 W/m2
14:14 61.1 °F /  16.2 °C 49 °F /  9.4 °C 29.90in /  1012.4hPa NW 8.1mph /  13km/h 27mph /  43.5km/h 64.3% 0.00in /  0mm 613 W/m2
14:19 61.1 °F /  16.2 °C 50.5 °F /  10.3 °C 29.90in /  1012.4hPa WNW 9.2mph /  14.8km/h 20mph /  32.2km/h 68.3% 0.00in /  0mm 613 W/m2
14:24 60.8 °F /  16 °C 50.9 °F /  10.5 °C 29.90in /  1012.4hPa WNW 8.4mph /  13.5km/h 19mph /  30.6km/h 70% 0.00in /  0mm 659 W/m2
14:29 61 °F /  16.1 °C 51.1 °F /  10.6 °C 29.91in /  1012.8hPa NW 10.4mph /  16.7km/h 22mph /  35.4km/h 70% 0.00in /  0mm 659 W/m2
14:34 60.3 °F /  15.7 °C 50.2 °F /  10.1 °C 29.91in /  1012.8hPa NW 11.1mph /  17.9km/h 22mph /  35.4km/h 69.3% 0.00in /  0mm 276 W/m2
14:39 60.4 °F /  15.8 °C 50.4 °F /  10.2 °C 29.91in /  1012.8hPa WNW 10.2mph /  16.4km/h 21mph /  33.8km/h 69.4% 0.00in /  0mm 587 W/m2
14:44 60.6 °F /  15.9 °C 50.4 °F /  10.2 °C 29.91in /  1012.8hPa WNW 11mph /  17.7km/h 21mph /  33.8km/h 69.2% 0.00in /  0mm 601 W/m2
14:49 60.7 °F /  15.9 °C 50.5 °F /  10.3 °C 29.91in /  1012.8hPa WNW 9.4mph /  15.1km/h 21mph /  33.8km/h 69.3% 0.00in /  0mm 601 W/m2
14:54 60.5 °F /  15.8 °C 50.3 °F /  10.2 °C 29.91in /  1012.8hPa NW 7.7mph /  12.4km/h 16mph /  25.7km/h 69.2% 0.00in /  0mm 599 W/m2
14:59 60.9 °F /  16.1 °C 50.6 °F /  10.3 °C 29.91in /  1012.8hPa NW 12.6mph /  20.3km/h 20mph /  32.2km/h 68.9% 0.00in /  0mm 633 W/m2
15:04 60.4 °F /  15.8 °C 50.1 °F /  10.1 °C 29.91in /  1012.8hPa NW 12.4mph /  20km/h 20mph /  32.2km/h 68.8% 0.00in /  0mm 197 W/m2
15:09 59.9 °F /  15.5 °C 50 °F /  10 °C 29.91in /  1012.8hPa WNW 11.7mph /  18.8km/h 22mph /  35.4km/h 69.7% 0.00in /  0mm 568 W/m2
15:14 60.2 °F /  15.7 °C 49.7 °F /  9.8 °C 29.91in /  1012.8hPa WNW 12.1mph /  19.5km/h 22mph /  35.4km/h 68.6% 0.00in /  0mm 570 W/m2
15:19 60.4 °F /  15.8 °C 49.8 °F /  9.9 °C 29.91in /  1012.8hPa WNW 9.6mph /  15.4km/h 22mph /  35.4km/h 68% 0.00in /  0mm 584 W/m2
15:24 61.1 °F /  16.2 °C 50.2 °F /  10.1 °C 29.91in /  1012.8hPa WNW 8.7mph /  14km/h 20mph /  32.2km/h 67.5% 0.00in /  0mm 555 W/m2
15:29 60.9 °F /  16.1 °C 50.1 °F /  10.1 °C 29.91in /  1012.8hPa WNW 8.6mph /  13.8km/h 20mph /  32.2km/h 67.5% 0.00in /  0mm 545 W/m2
15:34 60.9 °F /  16.1 °C 50.1 °F /  10.1 °C 29.92in /  1013.1hPa WNW 7.6mph /  12.2km/h 16mph /  25.7km/h 67.6% 0.00in /  0mm 457 W/m2
15:39 60.2 °F /  15.7 °C 49.6 °F /  9.8 °C 29.92in /  1013.1hPa NW 9.8mph /  15.8km/h 16mph /  25.7km/h 68.1% 0.00in /  0mm 221 W/m2
15:44 59.6 °F /  15.3 °C 49.5 °F /  9.7 °C 29.93in /  1013.4hPa WNW 7.5mph /  12.1km/h 16mph /  25.7km/h 69.1% 0.00in /  0mm 107 W/m2
15:49 59.5 °F /  15.3 °C 49.8 °F /  9.9 °C 29.93in /  1013.4hPa NW 8.6mph /  13.8km/h 16mph /  25.7km/h 70% 0.00in /  0mm 401 W/m2
15:54 59.8 °F /  15.4 °C 49.8 °F /  9.9 °C 29.93in /  1013.4hPa WNW 6.1mph /  9.8km/h 14mph /  22.5km/h 69.5% 0.00in /  0mm 378 W/m2
15:59 59.5 °F /  15.3 °C 49.3 °F /  9.6 °C 29.93in /  1013.4hPa WNW 11.2mph /  18km/h 18mph /  29km/h 68.9% 0.00in /  0mm 132 W/m2
16:04 59.1 °F /  15.1 °C 48.2 °F /  9 °C 29.93in /  1013.4hPa NW 9.3mph /  15km/h 18mph /  29km/h 67.3% 0.00in /  0mm 149 W/m2
16:09 58.9 °F /  14.9 °C 48 °F /  8.9 °C 29.93in /  1013.4hPa WNW 8.5mph /  13.7km/h 16mph /  25.7km/h 67.1% 0.00in /  0mm 114 W/m2
16:14 58.9 °F /  14.9 °C 48.3 °F /  9.1 °C 29.93in /  1013.4hPa NW 8.1mph /  13km/h 17mph /  27.4km/h 68% 0.00in /  0mm 392 W/m2
16:19 59 °F /  15 °C 48.4 °F /  9.1 °C 29.93in /  1013.4hPa NW 9.8mph /  15.8km/h 20mph /  32.2km/h 67.9% 0.00in /  0mm 364 W/m2
16:24 59 °F /  15 °C 48.2 °F /  9 °C 29.93in /  1013.4hPa WNW 9.3mph /  15km/h 20mph /  32.2km/h 67.5% 0.00in /  0mm 388 W/m2
16:29 59.2 °F /  15.1 °C 48.5 °F /  9.2 °C 29.94in /  1013.8hPa NW 7.7mph /  12.4km/h 20mph /  32.2km/h 67.9% 0.00in /  0mm 345 W/m2
16:34 59.5 °F /  15.3 °C 48.9 °F /  9.4 °C 29.93in /  1013.4hPa WNW 8.5mph /  13.7km/h 18mph /  29km/h 67.9% 0.00in /  0mm 352 W/m2
16:39 60 °F /  15.6 °C 49.4 °F /  9.7 °C 29.93in /  1013.4hPa NW 6.5mph /  10.5km/h 15mph /  24.1km/h 67.9% 0.00in /  0mm 352 W/m2
16:44 59.9 °F /  15.5 °C 49.3 °F /  9.6 °C 29.93in /  1013.4hPa NW 6.7mph /  10.8km/h 12mph /  19.3km/h 68% 0.00in /  0mm 272 W/m2
16:49 59.8 °F /  15.4 °C 49.3 °F /  9.6 °C 29.94in /  1013.8hPa NW 6.3mph /  10.1km/h 15mph /  24.1km/h 68.3% 0.00in /  0mm 272 W/m2
16:54 59.8 °F /  15.4 °C 49.2 °F /  9.6 °C 29.94in /  1013.8hPa NNW 7.1mph /  11.4km/h 17mph /  27.4km/h 68% 0.00in /  0mm 237 W/m2
16:59 59.3 °F /  15.2 °C 48.2 °F /  9 °C 29.94in /  1013.8hPa NW 7.8mph /  12.6km/h 14mph /  22.5km/h 66.6% 0.00in /  0mm 216 W/m2
17:04 59 °F /  15 °C 48.2 °F /  9 °C 29.95in /  1014.1hPa NW 6.7mph /  10.8km/h 14mph /  22.5km/h 67.5% 0.00in /  0mm 216 W/m2
17:09 59.1 °F /  15.1 °C 48.5 °F /  9.2 °C 29.95in /  1014.1hPa NW 7.1mph /  11.4km/h 18mph /  29km/h 68% 0.00in /  0mm 183 W/m2
17:14 59.1 °F /  15.1 °C 48.5 °F /  9.2 °C 29.95in /  1014.1hPa WNW 7.7mph /  12.4km/h 18mph /  29km/h 67.8% 0.00in /  0mm 178 W/m2
17:19 59 °F /  15 °C 48.4 °F /  9.1 °C 29.95in /  1014.1hPa NW 6.8mph /  10.9km/h 16mph /  25.7km/h 68% 0.00in /  0mm 195 W/m2
17:24 59 °F /  15 °C 48.4 °F /  9.1 °C 29.95in /  1014.1hPa NW 6.7mph /  10.8km/h 16mph /  25.7km/h 68% 0.00in /  0mm 167 W/m2
17:29 58.9 °F /  14.9 °C 48.3 °F /  9.1 °C 29.95in /  1014.1hPa NW 6.5mph /  10.5km/h 16mph /  25.7km/h 68% 0.00in /  0mm 155 W/m2
17:34 58.8 °F /  14.9 °C 48.2 °F /  9 °C 29.95in /  1014.1hPa WNW 7.9mph /  12.7km/h 15mph /  24.1km/h 68% 0.00in /  0mm 127 W/m2
17:39 58.7 °F /  14.8 °C 48.2 °F /  9 °C 29.96in /  1014.4hPa WNW 5.9mph /  9.5km/h 12mph /  19.3km/h 68% 0.00in /  0mm 127 W/m2
17:44 58.6 °F /  14.8 °C 48.5 °F /  9.2 °C 29.96in /  1014.4hPa WNW 5.2mph /  8.4km/h 10mph /  16.1km/h 68.7% 0.00in /  0mm 84 W/m2
17:49 58.7 °F /  14.8 °C 48.6 °F /  9.2 °C 29.96in /  1014.4hPa NW 2.7mph /  4.3km/h 10mph /  16.1km/h 69% 0.00in /  0mm 79 W/m2
17:54 58.6 °F /  14.8 °C 48.6 °F /  9.2 °C 29.96in /  1014.4hPa WNW 5.5mph /  8.9km/h 10mph /  16.1km/h 69% 0.00in /  0mm 70 W/m2
17:59 58.3 °F /  14.6 °C 47.9 °F /  8.8 °C 29.96in /  1014.4hPa NW 8.1mph /  13km/h 16mph /  25.7km/h 68.1% 0.00in /  0mm 72 W/m2
18:04 58.2 °F /  14.6 °C 48.1 °F /  8.9 °C 29.97in /  1014.8hPa NNW 2.3mph /  3.7km/h 11mph /  17.7km/h 68.9% 0.00in /  0mm 51 W/m2
18:09 58.3 °F /  14.6 °C 48.4 °F /  9.1 °C 29.97in /  1014.8hPa NW 1mph /  1.6km/h 5mph /  8km/h 69.5% 0.00in /  0mm 35 W/m2
18:14 58 °F /  14.4 °C 48.3 °F /  9.1 °C 29.97in /  1014.8hPa NW 3.3mph /  5.3km/h 9mph /  14.5km/h 70% 0.00in /  0mm 28 W/m2
18:19 57.5 °F /  14.2 °C 47.9 °F /  8.8 °C 29.97in /  1014.8hPa NW 4.2mph /  6.8km/h 10mph /  16.1km/h 70.3% 0.00in /  0mm 21 W/m2
18:24 57 °F /  13.9 °C 47.6 °F /  8.7 °C 29.98in /  1015.1hPa WNW 2.1mph /  3.4km/h 10mph /  16.1km/h 71% 0.00in /  0mm 11 W/m2
18:29 56.6 °F /  13.7 °C 47.4 °F /  8.6 °C 29.98in /  1015.1hPa NW 3mph /  4.8km/h 8mph /  12.9km/h 71.3% 0.00in /  0mm 9 W/m2
18:34 56.3 °F /  13.5 °C 47.5 °F /  8.6 °C 29.98in /  1015.1hPa NW 2.7mph /  4.3km/h 8mph /  12.9km/h 72% 0.00in /  0mm 5 W/m2
18:39 56.1 °F /  13.4 °C 47.3 °F /  8.5 °C 29.98in /  1015.1hPa NW 3.7mph /  6km/h 8mph /  12.9km/h 72% 0.00in /  0mm 0 W/m2
18:44 55.8 °F /  13.2 °C 47.1 °F /  8.4 °C 29.99in /  1015.5hPa WNW 2.1mph /  3.4km/h 6mph /  9.7km/h 72.2% 0.00in /  0mm 0 W/m2
18:49 55.6 °F /  13.1 °C 47.1 °F /  8.4 °C 29.99in /  1015.5hPa WNW 3.3mph /  5.3km/h 7mph /  11.3km/h 73% 0.00in /  0mm 0 W/m2
18:54 55.3 °F /  12.9 °C 46.8 °F /  8.2 °C 30.00in /  1015.8hPa WNW 3.8mph /  6.1km/h 8mph /  12.9km/h 73% 0.00in /  0mm 0 W/m2
18:59 55 °F /  12.8 °C 46.8 °F /  8.2 °C 29.99in /  1015.5hPa WNW 3.9mph /  6.3km/h 7mph /  11.3km/h 73.5% 0.00in /  0mm 0 W/m2
19:04 54.7 °F /  12.6 °C 46.6 °F /  8.1 °C 29.99in /  1015.5hPa WNW 4.1mph /  6.6km/h 8mph /  12.9km/h 74% 0.00in /  0mm 0 W/m2
19:09 54.5 °F /  12.5 °C 46.4 °F /  8 °C 30.00in /  1015.8hPa WNW 3.3mph /  5.3km/h 7mph /  11.3km/h 74% 0.00in /  0mm 0 W/m2
19:14 54.3 °F /  12.4 °C 46.2 °F /  7.9 °C 30.00in /  1015.8hPa West 4mph /  6.4km/h 8mph /  12.9km/h 74.1% 0.00in /  0mm 0 W/m2
19:19 54 °F /  12.2 °C 46.1 °F /  7.8 °C 30.01in /  1016.1hPa WNW 4.3mph /  6.9km/h 7mph /  11.3km/h 74.7% 0.00in /  0mm 0 W/m2
19:24 53.5 °F /  11.9 °C 45.8 °F /  7.7 °C 30.00in /  1015.8hPa WNW 5.2mph /  8.4km/h 8mph /  12.9km/h 75% 0.00in /  0mm 0 W/m2
19:29 53.3 °F /  11.8 °C 45.6 °F /  7.6 °C 30.00in /  1015.8hPa WNW 4.7mph /  7.6km/h 8mph /  12.9km/h 75% 0.00in /  0mm 0 W/m2
19:34 53.2 °F /  11.8 °C 45.5 °F /  7.5 °C 30.01in /  1016.1hPa WNW 3.9mph /  6.3km/h 10mph /  16.1km/h 75% 0.00in /  0mm 0 W/m2
19:39 53.2 °F /  11.8 °C 45.4 °F /  7.4 °C 30.01in /  1016.1hPa WNW 2.4mph /  3.9km/h 10mph /  16.1km/h 75% 0.00in /  0mm 0 W/m2
19:44 53.1 °F /  11.7 °C 45.3 °F /  7.4 °C 30.00in /  1015.8hPa WNW 3.3mph /  5.3km/h 7mph /  11.3km/h 75% 0.00in /  0mm 0 W/m2
19:49 53.1 °F /  11.7 °C 45.3 °F /  7.4 °C 30.00in /  1015.8hPa WNW 1.1mph /  1.8km/h 6mph /  9.7km/h 75% 0.00in /  0mm 0 W/m2
19:53 53.1 °F /  11.7 °C 45.3 °F /  7.4 °C 30.00in /  1015.8hPa WNW 0.8mph /  1.3km/h 5mph /  8km/h 75% 0.00in /  0mm 0 W/m2
19:59 52.8 °F /  11.6 °C 45.3 °F /  7.4 °C 30.00in /  1015.8hPa WNW 1.3mph /  2.1km/h 5mph /  8km/h 75.9% 0.00in /  0mm 0 W/m2
20:04 52.7 °F /  11.5 °C 45.3 °F /  7.4 °C 30.01in /  1016.1hPa WNW 0.8mph /  1.3km/h 3mph /  4.8km/h 76% 0.00in /  0mm 0 W/m2
20:09 52.7 °F /  11.5 °C 45.3 °F /  7.4 °C 30.01in /  1016.1hPa WNW 1.2mph /  1.9km/h 3mph /  4.8km/h 76% 0.00in /  0mm 0 W/m2
20:14 52.5 °F /  11.4 °C 45.1 °F /  7.3 °C 30.01in /  1016.1hPa WNW 0.5mph /  0.8km/h 2mph /  3.2km/h 76% 0.00in /  0mm 0 W/m2
20:19 52.3 °F /  11.3 °C 44.9 °F /  7.2 °C 30.01in /  1016.1hPa WNW 0.4mph /  0.6km/h 2mph /  3.2km/h 76% 0.00in /  0mm 0 W/m2
20:24 52.1 °F /  11.2 °C 44.9 °F /  7.2 °C 30.01in /  1016.1hPa WNW 0.5mph /  0.8km/h 3mph /  4.8km/h 76.6% 0.00in /  0mm 0 W/m2
20:29 51.8 °F /  11 °C 44.8 °F /  7.1 °C 30.02in /  1016.5hPa Calm   1mph /  1.6km/h 77% 0.00in /  0mm 0 W/m2
20:34 51.8 °F /  11 °C 44.9 °F /  7.2 °C 30.02in /  1016.5hPa Calm   1mph /  1.6km/h 77.3% 0.00in /  0mm 0 W/m2
20:39 51.6 °F /  10.9 °C 45 °F /  7.2 °C 30.02in /  1016.5hPa Calm     78% 0.00in /  0mm 0 W/m2
20:44 51.4 °F /  10.8 °C 44.9 °F /  7.2 °C 30.02in /  1016.5hPa WNW 0.6mph /  1km/h 3mph /  4.8km/h 78.3% 0.00in /  0mm 0 W/m2
20:49 51.2 °F /  10.7 °C 44.9 °F /  7.2 °C 30.03in /  1016.8hPa WNW 1.4mph /  2.3km/h 4mph /  6.4km/h 79% 0.00in /  0mm 0 W/m2
20:54 50.9 °F /  10.5 °C 44.9 °F /  7.2 °C 30.03in /  1016.8hPa WNW 2.4mph /  3.9km/h 5mph /  8km/h 79.8% 0.00in /  0mm 0 W/m2
20:59 50.9 °F /  10.5 °C 45 °F /  7.2 °C 30.03in /  1016.8hPa West 0.6mph /  1km/h 5mph /  8km/h 80% 0.00in /  0mm 0 W/m2
21:04 50.8 °F /  10.4 °C 45 °F /  7.2 °C 30.03in /  1016.8hPa Calm     80% 0.00in /  0mm 0 W/m2
21:09 50.7 °F /  10.4 °C 45.1 °F /  7.3 °C 30.03in /  1016.8hPa Calm   1mph /  1.6km/h 81% 0.00in /  0mm 0 W/m2
21:14 50.5 °F /  10.3 °C 45 °F /  7.2 °C 30.03in /  1016.8hPa Calm     81% 0.00in /  0mm 0 W/m2
21:19 50.3 °F /  10.2 °C 44.7 °F /  7.1 °C 30.03in /  1016.8hPa Calm     81% 0.00in /  0mm 0 W/m2
21:24 50 °F /  10 °C 44.5 °F /  6.9 °C 30.03in /  1016.8hPa West 0.2mph /  0.3km/h 1mph /  1.6km/h 81.3% 0.00in /  0mm 0 W/m2
21:29 49.6 °F /  9.8 °C 44.3 °F /  6.8 °C 30.03in /  1016.8hPa Calm   1mph /  1.6km/h 82% 0.00in /  0mm 0 W/m2
21:34 49.2 °F /  9.6 °C 44.1 °F /  6.7 °C 30.03in /  1016.8hPa West 0.3mph /  0.5km/h 2mph /  3.2km/h 82.5% 0.00in /  0mm 0 W/m2
21:39 48.9 °F /  9.4 °C 44.2 °F /  6.8 °C 30.03in /  1016.8hPa West 1.1mph /  1.8km/h 2mph /  3.2km/h 83.3% 0.00in /  0mm 0 W/m2
21:44 48.8 °F /  9.3 °C 44.2 °F /  6.8 °C 30.03in /  1016.8hPa West 0.4mph /  0.6km/h 2mph /  3.2km/h 84.2% 0.00in /  0mm 0 W/m2
21:49 48.6 °F /  9.2 °C 44.2 °F /  6.8 °C 30.02in /  1016.5hPa Calm   1mph /  1.6km/h 84.8% 0.00in /  0mm 0 W/m2
21:54 48.5 °F /  9.2 °C 44.1 °F /  6.7 °C 30.03in /  1016.8hPa Calm   1mph /  1.6km/h 85% 0.00in /  0mm 0 W/m2
21:59 48.4 °F /  9.1 °C 44.3 °F /  6.8 °C 30.03in /  1016.8hPa West 1.1mph /  1.8km/h 2mph /  3.2km/h 85.8% 0.00in /  0mm 0 W/m2
22:04 48.4 °F /  9.1 °C 44.4 °F /  6.9 °C 30.03in /  1016.8hPa West 0.4mph /  0.6km/h 3mph /  4.8km/h 86% 0.00in /  0mm 0 W/m2
22:09 48.4 °F /  9.1 °C 44.4 °F /  6.9 °C 30.02in /  1016.5hPa Calm   1mph /  1.6km/h 86% 0.00in /  0mm 0 W/m2
22:14 48.2 °F /  9 °C 44.2 °F /  6.8 °C 30.02in /  1016.5hPa Calm   1mph /  1.6km/h 86% 0.00in /  0mm 0 W/m2
22:19 48.2 °F /  9 °C 44.3 °F /  6.8 °C 30.02in /  1016.5hPa Calm   1mph /  1.6km/h 86.3% 0.00in /  0mm 0 W/m2
22:24 48.2 °F /  9 °C 44.6 °F /  7 °C 30.03in /  1016.8hPa Calm     87% 0.00in /  0mm 0 W/m2
22:29 47.9 °F /  8.8 °C 44.3 °F /  6.8 °C 30.02in /  1016.5hPa West 1.4mph /  2.3km/h 3mph /  4.8km/h 87% 0.00in /  0mm 0 W/m2
22:34 47.8 °F /  8.8 °C 44.2 °F /  6.8 °C 30.02in /  1016.5hPa West 1.4mph /  2.3km/h 4mph /  6.4km/h 87% 0.00in /  0mm 0 W/m2
22:39 47.8 °F /  8.8 °C 44.2 °F /  6.8 °C 30.02in /  1016.5hPa West 0.2mph /  0.3km/h 2mph /  3.2km/h 87% 0.00in /  0mm 0 W/m2
22:44 47.8 °F /  8.8 °C 44.2 °F /  6.8 °C 30.03in /  1016.8hPa Calm     87% 0.00in /  0mm 0 W/m2
22:49 47.8 °F /  8.8 °C 44.2 °F /  6.8 °C 30.03in /  1016.8hPa Calm     87% 0.00in /  0mm 0 W/m2
22:54 47.8 °F /  8.8 °C 44.3 °F /  6.8 °C 30.03in /  1016.8hPa West 0.7mph /  1.1km/h 2mph /  3.2km/h 87.8% 0.00in /  0mm 0 W/m2
22:59 47.7 °F /  8.7 °C 44.2 °F /  6.8 °C 30.04in /  1017.2hPa West 0.1mph /  0.2km/h 2mph /  3.2km/h 88% 0.00in /  0mm 0 W/m2
23:04 47.7 °F /  8.7 °C 44.2 °F /  6.8 °C 30.04in /  1017.2hPa West 0.1mph /  0.2km/h 1mph /  1.6km/h 88% 0.00in /  0mm 0 W/m2
23:09 47.7 °F /  8.7 °C 44.3 °F /  6.8 °C 30.04in /  1017.2hPa Calm     88% 0.00in /  0mm 0 W/m2
23:14 47.8 °F /  8.8 °C 44.3 °F /  6.8 °C 30.04in /  1017.2hPa Calm     88% 0.00in /  0mm 0 W/m2
23:19 47.8 °F /  8.8 °C 44.3 °F /  6.8 °C 30.03in /  1016.8hPa West 0.1mph /  0.2km/h 1mph /  1.6km/h 88% 0.00in /  0mm 0 W/m2
23:24 47.7 °F /  8.7 °C 44.2 °F /  6.8 °C 30.03in /  1016.8hPa Calm   1mph /  1.6km/h 88% 0.00in /  0mm 0 W/m2
23:29 47.4 °F /  8.6 °C 44.2 °F /  6.8 °C 30.03in /  1016.8hPa West 0.3mph /  0.5km/h 1mph /  1.6km/h 88.6% 0.00in /  0mm 0 W/m2
23:34 47.6 °F /  8.7 °C 44.5 °F /  6.9 °C 30.03in /  1016.8hPa West 0.3mph /  0.5km/h 2mph /  3.2km/h 89% 0.00in /  0mm 0 W/m2
23:39 47.7 °F /  8.7 °C 44.6 °F /  7 °C 30.03in /  1016.8hPa Calm   1mph /  1.6km/h 89% 0.00in /  0mm 0 W/m2
23:44 47.7 °F /  8.7 °C 44.6 °F /  7 °C 30.03in /  1016.8hPa Calm     89% 0.00in /  0mm 0 W/m2
23:49 47.7 °F /  8.7 °C 44.6 °F /  7 °C 30.03in /  1016.8hPa Calm     89% 0.00in /  0mm 0 W/m2
23:54 47.7 °F /  8.7 °C 44.6 °F /  7 °C 30.03in /  1016.8hPa Calm     89% 0.00in /  0mm 0 W/m2
23:59 47.5 °F /  8.6 °C 44.4 °F /  6.9 °C 30.03in /  1016.8hPa West 0.1mph /  0.2km/h 1mph /  1.6km/h 89% 0.00in /  0mm 0 W/m2
Bath Spa Weather
Compliments of Weather Underground - 2 mb